Time;durP1;ratioP1;P1;durP2;ratioP2;P2;SDS_P1;SDS_P2;PMS_P1;PMS_P2;Temp;Humidity;BMP_temperature;BMP_pressure;BME280_temperature;BME280_humidity;BME280_pressure;Samples;Min_cycle;Max_cycle;Signal;HPM_P1;HPM_P2
2023/02/13 00:00:27;;;;;;;;;;;;;;;;;;5115646;28;20396;-71
2023/02/13 00:02:53;;;;;;;;;;;;;;;;;;5115011;28;20033;-70
2023/02/13 00:05:19;;;;;;;;;;;;;;;;;;5114518;28;19951;-71
2023/02/13 00:07:45;;;;;;;;;;;;;;;;;;5115213;28;19995;-72
2023/02/13 00:10:11;;;;;;;;;;;;;;;;;;5114672;28;19993;-71
2023/02/13 00:12:37;;;;;;;;;;;;;;;;;;5115111;28;19978;-70
2023/02/13 00:15:03;;;;;;;;;;;;;;;;;;5114705;28;19972;-70
2023/02/13 00:17:29;;;;;;;;;;;;;;;;;;5115035;28;19996;-71
2023/02/13 00:19:55;;;;;;;;;;;;;;;;;;5114644;28;19976;-70
2023/02/13 00:22:20;;;;;;;;;;;;;;;;;;5114660;28;20402;-73
2023/02/13 00:24:46;;;;;;;;;;;;;;;;;;5114680;28;19960;-72
2023/02/13 00:27:12;;;;;;;;;;;;;;;;;;5096284;28;20334;-71
2023/02/13 00:29:38;;;;;;;;;;;;;;;;;;5115150;28;19953;-71
2023/02/13 00:32:04;;;;;;;;;;;;;;;;;;5114516;28;19991;-70
2023/02/13 00:34:30;;;;;;;;;;;;;;;;;;5114751;28;19961;-71
2023/02/13 00:36:56;;;;;;;;;;;;;;;;;;5114724;28;19978;-71
2023/02/13 00:39:23;;;;;;;;;;;;;;;;;;5114353;28;19971;-70
2023/02/13 00:41:49;;;;;;;;;;;;;;;;;;5095886;28;19964;-70
2023/02/13 00:44:14;;;;;;;;;;;;;;;;;;5114602;28;19954;-70
2023/02/13 00:46:40;;;;;;;;;;;;;;;;;;5114284;28;19961;-70
2023/02/13 00:49:06;;;;;;;;;;;;;;;;;;5114542;28;20048;-71
2023/02/13 00:51:32;;;;;;;;;;;;;;;;;;5115088;28;19953;-71
2023/02/13 00:53:58;;;;;;;;;;;;;;;;;;5114250;28;19960;-70
2023/02/13 00:56:24;;;;;;;;;;;;;;;;;;5114309;28;20469;-71
2023/02/13 00:58:50;;;;;;;;;;;;;;;;;;5114706;28;20429;-69
2023/02/13 01:01:16;;;;;;;;;;;;;;;;;;5114465;28;19960;-70
2023/02/13 01:03:42;;;;;;;;;;;;;;;;;;5114164;28;19952;-71
2023/02/13 01:06:07;;;;;;;;;;;;;;;;;;5114313;28;19959;-72
2023/02/13 01:08:33;;;;;;;;;;;;;;;;;;5114067;28;19967;-71
2023/02/13 01:10:59;;;;;;;;;;;;;;;;;;5113644;28;20047;-70
2023/02/13 01:13:25;;;;;;;;;;;;;;;;;;5114152;28;20069;-72
2023/02/13 01:15:51;;;;;;;;;;;;;;;;;;5114064;28;20404;-71
2023/02/13 01:18:17;;;;;;;;;;;;;;;;;;5118135;28;19979;-70
2023/02/13 01:20:43;;;;;;;;;;;;;;;;;;5118706;28;20312;-70
2023/02/13 01:23:09;;;;;;;;;;;;;;;;;;5118376;28;20004;-72
2023/02/13 01:25:34;;;;;;;;;;;;;;;;;;5118335;28;19996;-71
2023/02/13 01:28:00;;;;;;;;;;;;;;;;;;5118337;28;19954;-67
2023/02/13 01:30:26;;;;;;;;;;;;;;;;;;5118224;28;19962;-72
2023/02/13 01:32:52;;;;;;;;;;;;;;;;;;5118494;28;19955;-70
2023/02/13 01:35:18;;;;;;;;;;;;;;;;;;5118225;28;19953;-70
2023/02/13 01:37:44;;;;;;;;;;;;;;;;;;5118082;28;20446;-71
2023/02/13 01:40:10;;;;;;;;;;;;;;;;;;5117791;28;19961;-70
2023/02/13 01:42:36;;;;;;;;;;;;;;;;;;5117743;28;20004;-71
2023/02/13 01:45:01;;;;;;;;;;;;;;;;;;5117643;28;20380;-71
2023/02/13 01:47:27;;;;;;;;;;;;;;;;;;5117973;28;19958;-70
2023/02/13 01:49:53;;;;;;;;;;;;;;;;;;5117562;28;20327;-70
2023/02/13 01:52:19;;;;;;;;;;;;;;;;;;5117848;28;19951;-70
2023/02/13 01:54:45;;;;;;;;;;;;;;;;;;5117516;28;19957;-70
2023/02/13 01:57:11;;;;;;;;;;;;;;;;;;5117504;28;20043;-72
2023/02/13 01:59:37;;;;;;;;;;;;;;;;;;5117639;28;19985;-71
2023/02/13 02:02:03;;;;;;;;;;;;;;;;;;5117658;28;19950;-71
2023/02/13 02:04:28;;;;;;;;;;;;;;;;;;5117868;28;19953;-70
2023/02/13 02:06:55;;;;;;;;;;;;;;;;;;5117293;28;19964;-69
2023/02/13 02:09:21;;;;;;;;;;;;;;;;;;5116776;28;20417;-70
2023/02/13 02:11:47;;;;;;;;;;;;;;;;;;5116539;28;19983;-69
2023/02/13 02:14:13;;;;;;;;;;;;;;;;;;5115811;28;19967;-71
2023/02/13 02:16:39;;;;;;;;;;;;;;;;;;5115878;28;19950;-70
2023/02/13 02:19:05;;;;;;;;;;;;;;;;;;5116061;28;19982;-70
2023/02/13 02:21:31;;;;;;;;;;;;;;;;;;5115853;28;19952;-70
2023/02/13 02:23:57;;;;;;;;;;;;;;;;;;5115811;28;20513;-70
2023/02/13 02:26:23;;;;;;;;;;;;;;;;;;5115997;28;19957;-69
2023/02/13 02:28:48;;;;;;;;;;;;;;;;;;5115602;28;19958;-70
2023/02/13 02:31:14;;;;;;;;;;;;;;;;;;5115634;28;19958;-70
2023/02/13 02:33:40;;;;;;;;;;;;;;;;;;5115634;28;19954;-71
2023/02/13 02:36:06;;;;;;;;;;;;;;;;;;5097313;28;19963;-71
2023/02/13 02:38:32;;;;;;;;;;;;;;;;;;5116067;28;20439;-70
2023/02/13 02:41:00;;;;;;;;;;;;;;;;;;5115783;28;19954;-69
2023/02/13 02:43:26;;;;;;;;;;;;;;;;;;5115471;28;19954;-70
2023/02/13 02:45:52;;;;;;;;;;;;;;;;;;5115665;28;19958;-71
2023/02/13 02:51:02;;;;;;;;;;;;;;;;;;5115170;28;20055;-69
2023/02/13 02:53:28;;;;;;;;;;;;;;;;;;5115367;28;20005;-70
2023/02/13 02:55:54;;;;;;;;;;;;;;;;;;5115551;28;19954;-71
2023/02/13 03:06:34;;;;;;;;;;;;;;;;;;5115194;28;19990;-70
2023/02/13 03:14:29;;;;;;;;;;;;;;;;;;5115936;28;20525;-70
2023/02/13 03:22:24;;;;;;;;;;;;;;;;;;5115962;28;19962;-69
2023/02/13 03:24:50;;;;;;;;;;;;;;;;;;5115836;28;19953;-69
2023/02/13 03:27:15;;;;;;;;;;;;;;;;;;5115979;28;19957;-70
2023/02/13 03:32:26;;;;;;;;;;;;;;;;;;5115665;28;19959;-70
2023/02/13 03:37:54;;;;;;;;;;;;;;;;;;5115282;28;20004;-70
2023/02/13 03:40:20;;;;;;;;;;;;;;;;;;5114698;28;19984;-70
2023/02/13 03:42:46;;;;;;;;;;;;;;;;;;5115420;28;20443;-70
2023/02/13 03:47:56;;;;;;;;;;;;;;;;;;5115115;28;20009;-70
2023/02/13 03:50:22;;;;;;;;;;;;;;;;;;5115532;28;20029;-72
2023/02/13 03:52:48;;;;;;;;;;;;;;;;;;5115491;28;19955;-69
2023/02/13 04:00:43;;;;;;;;;;;;;;;;;;5115188;28;19995;-71
2023/02/13 04:03:09;;;;;;;;;;;;;;;;;;5115611;28;19954;-70
2023/02/13 04:05:35;;;;;;;;;;;;;;;;;;5115197;28;20424;-70
2023/02/13 04:08:01;;;;;;;;;;;;;;;;;;5096641;28;20371;-70
2023/02/13 04:10:27;;;;;;;;;;;;;;;;;;5114770;28;19988;-69
2023/02/13 04:12:53;;;;;;;;;;;;;;;;;;5114753;28;20303;-71
2023/02/13 04:15:18;;;;;;;;;;;;;;;;;;5115104;28;19982;-68
2023/02/13 04:17:44;;;;;;;;;;;;;;;;;;5114772;28;19958;-69
2023/02/13 04:20:10;;;;;;;;;;;;;;;;;;5114888;28;19988;-71
2023/02/13 04:22:36;;;;;;;;;;;;;;;;;;5114968;28;19952;-70
2023/02/13 04:25:02;;;;;;;;;;;;;;;;;;5114675;28;19951;-70
2023/02/13 04:27:28;;;;;;;;;;;;;;;;;;5115182;28;20054;-70
2023/02/13 04:29:54;;;;;;;;;;;;;;;;;;5114579;28;20001;-70
2023/02/13 04:32:20;;;;;;;;;;;;;;;;;;5114798;28;19954;-70
2023/02/13 04:34:45;;;;;;;;;;;;;;;;;;5114689;28;19957;-71
2023/02/13 04:37:11;;;;;;;;;;;;;;;;;;5114454;28;19954;-70
2023/02/13 04:39:38;;;;;;;;;;;;;;;;;;5114383;28;20115;-69
2023/02/13 04:42:04;;;;;;;;;;;;;;;;;;5095953;28;19957;-69
2023/02/13 04:44:30;;;;;;;;;;;;;;;;;;5114677;28;19962;-70
2023/02/13 04:46:56;;;;;;;;;;;;;;;;;;5114611;28;19953;-70
2023/02/13 04:49:22;;;;;;;;;;;;;;;;;;5114873;28;19953;-69
2023/02/13 04:51:48;;;;;;;;;;;;;;;;;;5114138;28;20429;-69
2023/02/13 04:54:14;;;;;;;;;;;;;;;;;;5114220;28;20044;-70
2023/02/13 04:56:39;;;;;;;;;;;;;;;;;;5114757;28;20339;-70
2023/02/13 04:59:05;;;;;;;;;;;;;;;;;;5114081;28;19981;-69
2023/02/13 05:01:31;;;;;;;;;;;;;;;;;;5114502;28;19960;-71
2023/02/13 05:03:57;;;;;;;;;;;;;;;;;;5114414;28;19955;-70
2023/02/13 05:06:23;;;;;;;;;;;;;;;;;;5114149;28;19954;-69
2023/02/13 05:08:49;;;;;;;;;;;;;;;;;;5114232;28;19993;-69
2023/02/13 05:11:15;;;;;;;;;;;;;;;;;;5114337;28;19968;-70
2023/02/13 05:13:41;;;;;;;;;;;;;;;;;;5113975;28;20463;-69
2023/02/13 05:16:06;;;;;;;;;;;;;;;;;;5114576;28;19948;-70
2023/02/13 05:18:32;;;;;;;;;;;;;;;;;;5113928;28;19970;-71
2023/02/13 05:23:43;;;;;;;;;;;;;;;;;;5113778;28;20001;-70
2023/02/13 05:26:09;;;;;;;;;;;;;;;;;;5114531;28;20349;-70
2023/02/13 05:31:19;;;;;;;;;;;;;;;;;;5113655;28;20427;-70
2023/02/13 05:33:45;;;;;;;;;;;;;;;;;;5113844;28;19952;-70
2023/02/13 05:36:11;;;;;;;;;;;;;;;;;;5114162;28;19956;-70
2023/02/13 05:38:37;;;;;;;;;;;;;;;;;;5113723;28;20002;-70
2023/02/13 05:41:03;;;;;;;;;;;;;;;;;;5114040;28;19951;-70
2023/02/13 05:43:29;;;;;;;;;;;;;;;;;;5113790;28;19943;-69
2023/02/13 05:45:55;;;;;;;;;;;;;;;;;;5114036;28;19948;-69
2023/02/13 05:48:21;;;;;;;;;;;;;;;;;;5113991;28;20496;-70
2023/02/13 05:50:47;;;;;;;;;;;;;;;;;;5113724;28;19940;-70
2023/02/13 05:53:13;;;;;;;;;;;;;;;;;;5114272;28;20304;-70
2023/02/13 05:55:38;;;;;;;;;;;;;;;;;;5113679;28;20391;-70
2023/02/13 05:58:04;;;;;;;;;;;;;;;;;;5113573;28;20095;-70
2023/02/13 06:00:30;;;;;;;;;;;;;;;;;;5113829;28;20456;-70
2023/02/13 06:02:56;;;;;;;;;;;;;;;;;;5115597;28;19947;-70
2023/02/13 06:05:22;;;;;;;;;;;;;;;;;;5117657;28;20411;-70
2023/02/13 06:07:48;;;;;;;;;;;;;;;;;;5117922;28;19949;-71
2023/02/13 06:10:14;;;;;;;;;;;;;;;;;;5117062;28;20385;-71
2023/02/13 06:12:40;;;;;;;;;;;;;;;;;;5098905;28;19951;-70
2023/02/13 06:15:05;;;;;;;;;;;;;;;;;;5117084;28;20339;-71
2023/02/13 06:17:31;;;;;;;;;;;;;;;;;;5117087;28;19980;-71
2023/02/13 06:19:57;;;;;;;;;;;;;;;;;;5117264;28;19965;-70
2023/02/13 06:22:23;;;;;;;;;;;;;;;;;;5117290;28;19941;-71
2023/02/13 06:24:49;;;;;;;;;;;;;;;;;;5116942;28;20010;-71
2023/02/13 06:27:15;;;;;;;;;;;;;;;;;;5117209;28;19951;-71
2023/02/13 06:29:41;;;;;;;;;;;;;;;;;;5116913;28;19941;-69
2023/02/13 06:32:07;;;;;;;;;;;;;;;;;;5117174;28;20002;-70
2023/02/13 06:34:32;;;;;;;;;;;;;;;;;;5098537;28;19943;-71
2023/02/13 06:36:58;;;;;;;;;;;;;;;;;;5116767;28;20009;-70
2023/02/13 06:39:24;;;;;;;;;;;;;;;;;;5116663;28;19972;-71
2023/02/13 06:41:50;;;;;;;;;;;;;;;;;;5116632;28;19939;-70
2023/02/13 06:44:16;;;;;;;;;;;;;;;;;;5116608;28;19944;-69
2023/02/13 06:46:42;;;;;;;;;;;;;;;;;;5116843;28;19987;-71
2023/02/13 06:49:08;;;;;;;;;;;;;;;;;;5116810;28;19947;-70
2023/02/13 06:51:34;;;;;;;;;;;;;;;;;;5116495;28;19949;-70
2023/02/13 06:54:00;;;;;;;;;;;;;;;;;;5117022;28;19949;-70
2023/02/13 06:56:26;;;;;;;;;;;;;;;;;;5116392;28;19953;-70
2023/02/13 06:58:52;;;;;;;;;;;;;;;;;;5116543;28;19959;-70
2023/02/13 07:01:17;;;;;;;;;;;;;;;;;;5116304;28;19948;-70
2023/02/13 07:03:44;;;;;;;;;;;;;;;;;;5116830;28;19949;-70
2023/02/13 07:06:10;;;;;;;;;;;;;;;;;;5116177;28;20426;-70
2023/02/13 07:08:36;;;;;;;;;;;;;;;;;;5116152;28;20035;-70
2023/02/13 07:11:02;;;;;;;;;;;;;;;;;;5097407;28;19988;-70
2023/02/13 07:13:28;;;;;;;;;;;;;;;;;;5115654;28;19995;-71
2023/02/13 07:15:53;;;;;;;;;;;;;;;;;;5115542;28;19955;-71
2023/02/13 07:18:19;;;;;;;;;;;;;;;;;;5115857;28;19967;-71
2023/02/13 07:20:45;;;;;;;;;;;;;;;;;;5115889;28;19945;-70
2023/02/13 07:23:11;;;;;;;;;;;;;;;;;;5116158;28;19945;-70
2023/02/13 07:25:37;;;;;;;;;;;;;;;;;;5115808;28;19948;-69
2023/02/13 07:28:03;;;;;;;;;;;;;;;;;;5115725;28;19977;-71
2023/02/13 07:30:29;;;;;;;;;;;;;;;;;;5115988;28;20312;-71
2023/02/13 07:32:55;;;;;;;;;;;;;;;;;;5115688;28;19952;-70
2023/02/13 07:35:21;;;;;;;;;;;;;;;;;;5115911;28;19958;-70
2023/02/13 07:37:47;;;;;;;;;;;;;;;;;;5115878;28;19946;-72
2023/02/13 07:40:13;;;;;;;;;;;;;;;;;;5115444;28;20018;-72
2023/02/13 07:42:39;;;;;;;;;;;;;;;;;;5097226;28;19952;-70
2023/02/13 07:45:06;;;;;;;;;;;;;;;;;;5115426;28;19947;-71
2023/02/13 07:47:32;;;;;;;;;;;;;;;;;;5115665;28;19955;-71
2023/02/13 07:49:58;;;;;;;;;;;;;;;;;;5115313;28;19992;-71
2023/02/13 07:52:23;;;;;;;;;;;;;;;;;;5115240;28;20302;-70
2023/02/13 07:54:50;;;;;;;;;;;;;;;;;;5115216;28;19945;-70
2023/02/13 07:57:16;;;;;;;;;;;;;;;;;;5115730;28;19977;-71
2023/02/13 07:59:42;;;;;;;;;;;;;;;;;;5115336;28;20011;-71
2023/02/13 08:02:07;;;;;;;;;;;;;;;;;;5115664;28;19952;-71
2023/02/13 08:04:33;;;;;;;;;;;;;;;;;;5115038;28;19945;-70
2023/02/13 08:06:59;;;;;;;;;;;;;;;;;;5115559;28;20398;-71
2023/02/13 08:12:10;;;;;;;;;;;;;;;;;;5133310;27;19953;-72
2023/02/13 08:14:36;;;;;;;;;;;;;;;;;;5135402;27;19959;-69
2023/02/13 08:17:02;;;;;;;;;;;;;;;;;;5133201;27;20324;-69
2023/02/13 08:19:28;;;;;;;;;;;;;;;;;;5129959;27;19969;-68
2023/02/13 08:21:54;;;;;;;;;;;;;;;;;;5134211;27;19958;-69
2023/02/13 08:24:19;;;;;;;;;;;;;;;;;;5135549;27;19943;-70
2023/02/13 08:26:45;;;;;;;;;;;;;;;;;;5134840;27;20045;-68
2023/02/13 08:29:11;;;;;;;;;;;;;;;;;;5135203;27;19947;-69
2023/02/13 08:31:37;;;;;;;;;;;;;;;;;;5135459;27;19940;-70
2023/02/13 08:34:03;;;;;;;;;;;;;;;;;;5135135;27;20283;-70
2023/02/13 08:36:29;;;;;;;;;;;;;;;;;;5135395;27;19949;-70
2023/02/13 08:38:55;;;;;;;;;;;;;;;;;;5133942;27;20351;-70
2023/02/13 08:41:21;;;;;;;;;;;;;;;;;;5135037;27;19987;-71
2023/02/13 08:43:48;;;;;;;;;;;;;;;;;;5124160;27;19953;-71
2023/02/13 08:46:13;;;;;;;;;;;;;;;;;;5114411;28;20464;-71
2023/02/13 08:48:39;;;;;;;;;;;;;;;;;;5114884;28;19950;-71
2023/02/13 08:51:05;;;;;;;;;;;;;;;;;;5127566;27;19958;-71
2023/02/13 08:53:31;;;;;;;;;;;;;;;;;;5134845;27;20324;-70
2023/02/13 08:55:57;;;;;;;;;;;;;;;;;;5135084;27;20045;-70
2023/02/13 08:58:23;;;;;;;;;;;;;;;;;;5134686;27;20446;-70
2023/02/13 09:00:49;;;;;;;;;;;;;;;;;;5134782;27;19949;-70
2023/02/13 09:03:15;;;;;;;;;;;;;;;;;;5135050;27;20328;-72
2023/02/13 09:05:41;;;;;;;;;;;;;;;;;;5121003;28;19967;-70
2023/02/13 09:08:07;;;;;;;;;;;;;;;;;;5114348;28;20024;-69
2023/02/13 09:10:33;;;;;;;;;;;;;;;;;;5099255;28;20513;-75
2023/02/13 09:13:00;;;;;;;;;;;;;;;;;;5093692;28;20409;-68
2023/02/13 09:15:26;;;;;;;;;;;;;;;;;;5093289;28;19963;-68
2023/02/13 09:17:51;;;;;;;;;;;;;;;;;;5093647;28;19961;-68
2023/02/13 09:20:17;;;;;;;;;;;;;;;;;;5093844;28;20337;-68
2023/02/13 09:22:43;;;;;;;;;;;;;;;;;;5093691;28;20002;-69
2023/02/13 09:25:09;;;;;;;;;;;;;;;;;;5097984;28;19971;-68
2023/02/13 09:27:36;;;;;;;;;;;;;;;;;;5113904;28;19955;-70
2023/02/13 09:30:02;;;;;;;;;;;;;;;;;;5095166;28;20483;-72
2023/02/13 09:32:27;;;;;;;;;;;;;;;;;;5093737;28;19957;-69
2023/02/13 09:34:53;;;;;;;;;;;;;;;;;;5098963;28;19956;-69
2023/02/13 09:37:21;;;;;;;;;;;;;;;;;;5110902;28;19958;-68
2023/02/13 09:39:47;;;;;;;;;;;;;;;;;;5107435;28;20464;-68
2023/02/13 09:42:13;;;;;;;;;;;;;;;;;;5101205;28;19967;-69
2023/02/13 09:44:42;;;;;;;;;;;;;;;;;;5099938;28;20072;-69
2023/02/13 09:47:08;;;;;;;;;;;;;;;;;;5108209;28;19958;-68
2023/02/13 09:49:33;;;;;;;;;;;;;;;;;;5105616;28;19960;-69
2023/02/13 09:51:59;;;;;;;;;;;;;;;;;;5116495;28;19960;-69
2023/02/13 09:54:27;;;;;;;;;;;;;;;;;;5103686;28;20050;-69
2023/02/13 09:56:53;;;;;;;;;;;;;;;;;;5109313;28;19955;-71
2023/02/13 09:59:19;;;;;;;;;;;;;;;;;;5097065;28;19970;-70
2023/02/13 10:01:45;;;;;;;;;;;;;;;;;;5097334;28;19955;-72
2023/02/13 10:04:11;;;;;;;;;;;;;;;;;;5097105;28;19963;-71
2023/02/13 10:06:48;;;;;;;;;;;;;;;;;;5097065;28;20000;-73
2023/02/13 10:09:14;;;;;;;;;;;;;;;;;;5078647;28;19992;-70
2023/02/13 10:11:40;;;;;;;;;;;;;;;;;;5097270;28;20039;-72
2023/02/13 10:14:06;;;;;;;;;;;;;;;;;;5096843;28;20432;-71
2023/02/13 10:16:32;;;;;;;;;;;;;;;;;;5112736;28;19968;-70
2023/02/13 10:18:58;;;;;;;;;;;;;;;;;;5115315;28;20343;-69
2023/02/13 10:21:23;;;;;;;;;;;;;;;;;;5117413;28;19990;-72
2023/02/13 10:23:49;;;;;;;;;;;;;;;;;;5117016;28;19954;-69
2023/02/13 10:26:15;;;;;;;;;;;;;;;;;;5117291;28;19964;-70
2023/02/13 10:28:41;;;;;;;;;;;;;;;;;;5104314;28;19961;-69
2023/02/13 10:31:07;;;;;;;;;;;;;;;;;;5095041;28;20024;-70
2023/02/13 10:33:33;;;;;;;;;;;;;;;;;;5095230;28;19962;-69
2023/02/13 10:35:59;;;;;;;;;;;;;;;;;;5097029;28;19953;-70
2023/02/13 10:38:25;;;;;;;;;;;;;;;;;;5097079;28;20076;-71
2023/02/13 10:40:51;;;;;;;;;;;;;;;;;;5107338;28;20060;-70
2023/02/13 10:43:17;;;;;;;;;;;;;;;;;;5116551;28;19993;-69
2023/02/13 10:45:42;;;;;;;;;;;;;;;;;;5116697;28;19954;-72
2023/02/13 10:48:08;;;;;;;;;;;;;;;;;;5114822;28;20005;-70
2023/02/13 10:50:34;;;;;;;;;;;;;;;;;;5103408;28;19958;-73
2023/02/13 10:53:00;;;;;;;;;;;;;;;;;;5114142;28;20012;-68
2023/02/13 10:55:26;;;;;;;;;;;;;;;;;;5116663;28;19951;-70
2023/02/13 10:57:52;;;;;;;;;;;;;;;;;;5114723;28;20007;-69
2023/02/13 11:00:18;;;;;;;;;;;;;;;;;;5111942;28;20467;-71
2023/02/13 11:02:44;;;;;;;;;;;;;;;;;;5100523;28;19967;-71
2023/02/13 11:05:10;;;;;;;;;;;;;;;;;;5116126;28;19960;-70
2023/02/13 11:07:35;;;;;;;;;;;;;;;;;;5113621;28;20433;-70
2023/02/13 11:10:01;;;;;;;;;;;;;;;;;;5126179;27;19991;-71
2023/02/13 11:12:27;;;;;;;;;;;;;;;;;;5127573;27;19970;-71
2023/02/13 11:14:53;;;;;;;;;;;;;;;;;;5136519;27;19968;-72
2023/02/13 11:17:19;;;;;;;;;;;;;;;;;;5136598;27;19991;-71
2023/02/13 11:19:45;;;;;;;;;;;;;;;;;;5120336;27;20422;-70
2023/02/13 11:22:12;;;;;;;;;;;;;;;;;;5116054;28;20002;-69
2023/02/13 11:24:38;;;;;;;;;;;;;;;;;;5116526;28;19953;-68
2023/02/13 11:27:07;;;;;;;;;;;;;;;;;;5116172;28;19961;-71
2023/02/13 11:29:33;;;;;;;;;;;;;;;;;;5115542;27;20067;-71
2023/02/13 11:31:59;;;;;;;;;;;;;;;;;;5115386;27;19957;-70
2023/02/13 11:34:25;;;;;;;;;;;;;;;;;;5116106;28;20095;-70
2023/02/13 11:36:51;;;;;;;;;;;;;;;;;;5114584;28;19980;-69
2023/02/13 11:39:17;;;;;;;;;;;;;;;;;;5115421;28;20509;-70
2023/02/13 11:41:43;;;;;;;;;;;;;;;;;;5115671;28;19951;-69
2023/02/13 11:44:09;;;;;;;;;;;;;;;;;;5115394;28;20041;-69
2023/02/13 11:46:34;;;;;;;;;;;;;;;;;;5115347;28;20002;-69
2023/02/13 11:49:01;;;;;;;;;;;;;;;;;;5115734;28;19997;-69
2023/02/13 11:51:26;;;;;;;;;;;;;;;;;;5115327;28;20359;-69
2023/02/13 11:53:57;;;;;;;;;;;;;;;;;;5115504;28;19959;-70
2023/02/13 11:56:23;;;;;;;;;;;;;;;;;;5115498;28;20046;-69
2023/02/13 11:58:48;;;;;;;;;;;;;;;;;;5115368;28;20061;-70
2023/02/13 12:01:14;;;;;;;;;;;;;;;;;;5114991;28;19956;-69
2023/02/13 12:03:40;;;;;;;;;;;;;;;;;;5115072;28;19948;-69
2023/02/13 12:06:06;;;;;;;;;;;;;;;;;;5115276;28;19959;-70
2023/02/13 12:08:32;;;;;;;;;;;;;;;;;;5115008;28;19959;-68
2023/02/13 12:10:58;;;;;;;;;;;;;;;;;;5114522;28;20057;-69
2023/02/13 12:13:26;;;;;;;;;;;;;;;;;;5115250;28;19968;-69
2023/02/13 12:15:52;;;;;;;;;;;;;;;;;;5114904;28;19951;-70
2023/02/13 12:18:18;;;;;;;;;;;;;;;;;;5114760;28;19951;-69
2023/02/13 12:20:43;;;;;;;;;;;;;;;;;;5114791;28;20473;-70
2023/02/13 12:23:09;;;;;;;;;;;;;;;;;;5114732;28;19954;-69
2023/02/13 12:25:35;;;;;;;;;;;;;;;;;;5115310;28;19960;-69
2023/02/13 12:28:01;;;;;;;;;;;;;;;;;;5114665;28;19995;-69
2023/02/13 12:30:27;;;;;;;;;;;;;;;;;;5114603;28;19960;-69
2023/02/13 12:32:53;;;;;;;;;;;;;;;;;;5114839;28;19994;-70
2023/02/13 12:35:19;;;;;;;;;;;;;;;;;;5114610;28;19951;-70
2023/02/13 12:37:45;;;;;;;;;;;;;;;;;;5114800;28;19959;-69
2023/02/13 12:40:12;;;;;;;;;;;;;;;;;;5114363;28;19983;-70
2023/02/13 12:42:38;;;;;;;;;;;;;;;;;;5114627;28;20427;-70
2023/02/13 12:45:04;;;;;;;;;;;;;;;;;;5114973;28;19950;-70
2023/02/13 12:47:30;;;;;;;;;;;;;;;;;;5114409;28;19960;-69
2023/02/13 12:49:58;;;;;;;;;;;;;;;;;;5114324;28;19955;-70
2023/02/13 12:52:23;;;;;;;;;;;;;;;;;;5114878;28;19952;-69
2023/02/13 12:54:51;;;;;;;;;;;;;;;;;;5114239;28;20418;-70
2023/02/13 12:57:17;;;;;;;;;;;;;;;;;;5114459;28;20367;-69
2023/02/13 12:59:43;;;;;;;;;;;;;;;;;;5114665;28;19967;-69
2023/02/13 13:02:09;;;;;;;;;;;;;;;;;;5095635;28;20019;-69
2023/02/13 13:04:35;;;;;;;;;;;;;;;;;;5114425;28;20419;-69
2023/02/13 13:07:01;;;;;;;;;;;;;;;;;;5114670;28;20390;-69
2023/02/13 13:09:27;;;;;;;;;;;;;;;;;;5118309;28;19982;-73
2023/02/13 13:11:54;;;;;;;;;;;;;;;;;;5116882;27;19957;-71
2023/02/13 13:14:20;;;;;;;;;;;;;;;;;;5138908;27;19975;-71
2023/02/13 13:16:47;;;;;;;;;;;;;;;;;;5139161;27;19955;-71
2023/02/13 13:19:13;;;;;;;;;;;;;;;;;;5138877;27;19973;-70
2023/02/13 13:21:38;;;;;;;;;;;;;;;;;;5139450;27;20372;-71
2023/02/13 13:24:04;;;;;;;;;;;;;;;;;;5139075;27;19950;-72
2023/02/13 13:26:31;;;;;;;;;;;;;;;;;;5135014;27;19955;-70
2023/02/13 13:28:56;;;;;;;;;;;;;;;;;;5120905;27;20308;-72
2023/02/13 13:31:24;;;;;;;;;;;;;;;;;;5125398;27;20039;-75
2023/02/13 13:33:50;;;;;;;;;;;;;;;;;;5117599;28;20013;-73
2023/02/13 13:36:16;;;;;;;;;;;;;;;;;;5126053;27;19960;-75
2023/02/13 13:38:42;;;;;;;;;;;;;;;;;;5138870;27;19971;-69
2023/02/13 13:41:08;;;;;;;;;;;;;;;;;;5135752;27;20010;-70
2023/02/13 13:43:34;;;;;;;;;;;;;;;;;;5138679;27;20394;-70
2023/02/13 13:46:01;;;;;;;;;;;;;;;;;;5138405;27;19960;-71
2023/02/13 13:48:27;;;;;;;;;;;;;;;;;;5138389;27;20091;-70
2023/02/13 13:50:53;;;;;;;;;;;;;;;;;;5138645;27;20432;-71
2023/02/13 13:53:19;;;;;;;;;;;;;;;;;;5138530;27;20054;-72
2023/02/13 13:55:45;;;;;;;;;;;;;;;;;;5138257;27;20359;-73
2023/02/13 13:58:11;;;;;;;;;;;;;;;;;;5138712;27;19948;-74
2023/02/13 14:00:37;;;;;;;;;;;;;;;;;;5138183;27;19951;-70
2023/02/13 14:03:03;;;;;;;;;;;;;;;;;;5138073;27;20346;-71
2023/02/13 14:05:29;;;;;;;;;;;;;;;;;;5135949;27;20025;-67
2023/02/13 14:07:55;;;;;;;;;;;;;;;;;;5138333;27;19951;-67
2023/02/13 14:10:20;;;;;;;;;;;;;;;;;;5130241;27;19980;-69
2023/02/13 14:12:46;;;;;;;;;;;;;;;;;;5129217;27;19958;-69
2023/02/13 14:15:12;;;;;;;;;;;;;;;;;;5137744;27;20000;-68
2023/02/13 14:17:38;;;;;;;;;;;;;;;;;;5137446;27;20325;-67
2023/02/13 14:20:04;;;;;;;;;;;;;;;;;;5135541;27;20086;-68
2023/02/13 14:22:30;;;;;;;;;;;;;;;;;;5136012;27;20331;-71
2023/02/13 14:24:56;;;;;;;;;;;;;;;;;;5129206;27;19959;-69
2023/02/13 14:27:22;;;;;;;;;;;;;;;;;;5135676;27;19958;-68
2023/02/13 14:29:48;;;;;;;;;;;;;;;;;;5133083;27;20036;-69
2023/02/13 14:32:14;;;;;;;;;;;;;;;;;;5132482;27;19967;-69
2023/02/13 14:34:40;;;;;;;;;;;;;;;;;;5137195;27;19955;-68
2023/02/13 14:37:06;;;;;;;;;;;;;;;;;;5138007;27;20462;-68
2023/02/13 14:39:33;;;;;;;;;;;;;;;;;;5136174;27;20016;-68
2023/02/13 14:41:59;;;;;;;;;;;;;;;;;;5130127;27;20319;-69
2023/02/13 14:44:25;;;;;;;;;;;;;;;;;;5137352;27;19949;-68
2023/02/13 14:46:51;;;;;;;;;;;;;;;;;;5135941;27;19960;-68
2023/02/13 14:49:16;;;;;;;;;;;;;;;;;;5117783;27;20005;-69
2023/02/13 14:51:42;;;;;;;;;;;;;;;;;;5116628;28;19954;-68
2023/02/13 14:54:08;;;;;;;;;;;;;;;;;;5116789;28;19955;-68
2023/02/13 14:56:34;;;;;;;;;;;;;;;;;;5116464;27;19967;-67
2023/02/13 14:59:00;;;;;;;;;;;;;;;;;;5117813;27;19973;-67
2023/02/13 15:01:26;;;;;;;;;;;;;;;;;;5118542;27;19977;-66
2023/02/13 15:03:53;;;;;;;;;;;;;;;;;;5126647;27;19960;-69
2023/02/13 15:06:19;;;;;;;;;;;;;;;;;;5124405;27;19957;-67
2023/02/13 15:08:45;;;;;;;;;;;;;;;;;;5117105;28;19961;-70
2023/02/13 15:11:34;;;;;;;;;;;;;;;;;;5107838;28;19993;-69
2023/02/13 15:14:00;;;;;;;;;;;;;;;;;;5095943;28;19974;-70
2023/02/13 15:16:25;;;;;;;;;;;;;;;;;;5100458;28;19961;-69
2023/02/13 15:18:54;;;;;;;;;;;;;;;;;;5095283;28;20423;-69
2023/02/13 15:21:20;;;;;;;;;;;;;;;;;;5095517;28;20467;-69
2023/02/13 15:23:45;;;;;;;;;;;;;;;;;;5095209;28;19961;-69
2023/02/13 15:26:11;;;;;;;;;;;;;;;;;;5096044;28;19950;-67
2023/02/13 15:28:37;;;;;;;;;;;;;;;;;;5105301;28;20326;-68
2023/02/13 15:31:04;;;;;;;;;;;;;;;;;;5095462;28;19955;-72
2023/02/13 15:33:30;;;;;;;;;;;;;;;;;;5106506;28;19960;-71
2023/02/13 15:35:55;;;;;;;;;;;;;;;;;;5096066;28;19965;-72
2023/02/13 15:38:21;;;;;;;;;;;;;;;;;;5111776;28;19958;-70
2023/02/13 15:40:47;;;;;;;;;;;;;;;;;;5087468;28;19965;-70
2023/02/13 15:43:13;;;;;;;;;;;;;;;;;;5107031;28;19965;-72
2023/02/13 15:45:39;;;;;;;;;;;;;;;;;;5109562;28;19960;-72
2023/02/13 15:48:05;;;;;;;;;;;;;;;;;;5112291;28;20374;-71
2023/02/13 15:50:31;;;;;;;;;;;;;;;;;;5115449;28;19951;-71
2023/02/13 15:52:57;;;;;;;;;;;;;;;;;;5115810;28;20011;-71
2023/02/13 15:55:23;;;;;;;;;;;;;;;;;;5098671;28;19960;-70
2023/02/13 15:57:49;;;;;;;;;;;;;;;;;;5107294;28;20090;-70
2023/02/13 16:00:14;;;;;;;;;;;;;;;;;;5112597;28;19979;-71
2023/02/13 16:02:40;;;;;;;;;;;;;;;;;;5113914;28;20442;-71
2023/02/13 16:05:06;;;;;;;;;;;;;;;;;;5095898;28;19963;-68
2023/02/13 16:07:32;;;;;;;;;;;;;;;;;;5094509;28;20062;-69
2023/02/13 16:09:58;;;;;;;;;;;;;;;;;;5109311;27;19986;-70
2023/02/13 16:12:24;;;;;;;;;;;;;;;;;;5134023;27;20049;-68
2023/02/13 16:14:50;;;;;;;;;;;;;;;;;;5135384;27;19974;-68
2023/02/13 16:17:16;;;;;;;;;;;;;;;;;;5131868;27;19961;-68
2023/02/13 16:19:41;;;;;;;;;;;;;;;;;;5135893;27;20359;-66
2023/02/13 16:22:07;;;;;;;;;;;;;;;;;;5133855;27;19962;-66
2023/02/13 16:24:33;;;;;;;;;;;;;;;;;;5130609;27;20003;-69
2023/02/13 16:26:59;;;;;;;;;;;;;;;;;;5125153;27;19960;-70
2023/02/13 16:29:26;;;;;;;;;;;;;;;;;;5114562;28;20447;-69
2023/02/13 16:31:52;;;;;;;;;;;;;;;;;;5128835;27;20342;-69
2023/02/13 16:34:18;;;;;;;;;;;;;;;;;;5123625;27;19951;-67
2023/02/13 16:36:44;;;;;;;;;;;;;;;;;;5123934;27;20334;-68
2023/02/13 16:39:09;;;;;;;;;;;;;;;;;;5129664;27;19977;-68
2023/02/13 16:41:35;;;;;;;;;;;;;;;;;;5119815;27;20470;-69
2023/02/13 16:44:01;;;;;;;;;;;;;;;;;;5114489;27;19957;-67
2023/02/13 16:46:27;;;;;;;;;;;;;;;;;;5113966;28;19994;-66
2023/02/13 16:48:53;;;;;;;;;;;;;;;;;;5112419;28;19958;-66
2023/02/13 16:51:19;;;;;;;;;;;;;;;;;;5114182;28;19957;-66
2023/02/13 16:53:45;;;;;;;;;;;;;;;;;;5114634;28;19952;-66
2023/02/13 16:56:11;;;;;;;;;;;;;;;;;;5114079;28;19962;-66
2023/02/13 16:58:37;;;;;;;;;;;;;;;;;;5114104;28;19969;-66
2023/02/13 17:01:02;;;;;;;;;;;;;;;;;;5095569;28;20429;-66
2023/02/13 17:03:28;;;;;;;;;;;;;;;;;;5114095;28;19951;-67
2023/02/13 17:05:54;;;;;;;;;;;;;;;;;;5113926;28;19951;-66
2023/02/13 17:08:20;;;;;;;;;;;;;;;;;;5113952;28;20099;-66
2023/02/13 17:10:46;;;;;;;;;;;;;;;;;;5113667;28;19989;-66
2023/02/13 17:13:12;;;;;;;;;;;;;;;;;;5113926;28;19967;-67
2023/02/13 17:15:38;;;;;;;;;;;;;;;;;;5114250;28;19949;-67
2023/02/13 17:18:04;;;;;;;;;;;;;;;;;;5113806;28;19999;-67
2023/02/13 17:20:30;;;;;;;;;;;;;;;;;;5113820;28;19970;-67